Grigsby, Texas
Current Conditions -  °F | °C
As of 8:35 PM on Thursday 20 Nov 2014 (Local Time) from KOCH Reporting Station
Overcast Overcast  
Wind Chill: 63°   Ceiling: 6000
Heat Index: 63°   Visibility: 10mi
Dew Point: 52°   Wind: 6mph
Humidity: 68%   Direction: 150°SSE
Pressure: 30.13"   Gusts: NA
Location:  31.7586°N, 94.1975°W
Report Text: KOCH 210235Z AUTO 15005KT 10SM OVC060 17/11 A3013 RMK AO1
Loading
Personal Weather Stations






























Interactive Weather Map New forecast layout! Learn more

10-Day Weather Forecast

Advertisements
Track Severe Weather on mobile